Time;durP1;ratioP1;P1;durP2;ratioP2;P2;SDS_P1;SDS_P2;PMS_P1;PMS_P2;Temp;Humidity;BMP_temperature;BMP_pressure;BME280_temperature;BME280_humidity;BME280_pressure;Samples;Min_cycle;Max_cycle;Signal;HPM_P1;HPM_P2
2023/12/03 00:02:16;;;;;;;;;;;;;;;21.74;25.86;96909.03;5015259;28;976;-76
2023/12/03 00:04:41;;;;;;;;;;;;;;;21.24;26.50;96907.53;4998516;28;1225;-75
2023/12/03 00:07:07;;;;;;;;;;;;;;;21.19;26.49;96923.13;5015244;28;1027;-76
2023/12/03 00:09:33;;;;;;;;;;;;;;;21.14;26.57;96923.72;5015025;28;1062;-76
2023/12/03 00:11:58;;;;;;;;;;;;;;;21.56;26.04;96920.38;4998474;28;1398;-76
2023/12/03 00:14:24;;;;;;;;;;;;;;;21.59;26.21;96927.91;5014878;28;1977;-76
2023/12/03 00:16:49;;;;;;;;;;;;;;;22.00;25.51;96925.69;4998641;28;1100;-76
2023/12/03 00:19:14;;;;;;;;;;;;;;;22.12;25.32;96938.13;5015260;28;1016;-76
2023/12/03 00:21:40;;;;;;;;;;;;;;;22.22;25.17;96931.97;5014501;28;1132;-75
2023/12/03 00:24:06;;;;;;;;;;;;;;;22.14;25.32;96925.09;5015486;28;1388;-76
2023/12/03 00:26:31;;;;;;;;;;;;;;;21.66;25.94;96941.75;5015617;28;893;-76
2023/12/03 00:28:57;;;;;;;;;;;;;;;21.16;26.46;96949.50;5015684;28;1032;-76
2023/12/03 00:31:22;;;;;;;;;;;;;;;21.40;26.27;96957.44;4995176;28;978;-75
2023/12/03 00:33:48;;;;;;;;;;;;;;;21.72;25.92;96947.59;4994650;28;1109;-76
2023/12/03 00:36:13;;;;;;;;;;;;;;;21.60;25.81;96943.63;4994928;28;1918;-76
2023/12/03 00:38:39;;;;;;;;;;;;;;;22.09;25.54;96945.50;4994716;28;1012;-76
2023/12/03 00:41:04;;;;;;;;;;;;;;;22.15;25.29;96954.19;4978539;28;1017;-76
2023/12/03 00:43:30;;;;;;;;;;;;;;;21.93;25.56;96960.00;4994957;28;986;-76
2023/12/03 00:45:57;;;;;;;;;;;;;;;21.68;25.95;96944.91;4994827;28;1017;-76
2023/12/03 00:48:23;;;;;;;;;;;;;;;21.60;26.22;96949.28;4978642;28;1015;-75
2023/12/03 00:50:48;;;;;;;;;;;;;;;21.27;26.74;96951.88;4978365;28;937;-75
2023/12/03 00:53:14;;;;;;;;;;;;;;;21.62;25.84;96958.09;4978481;28;1334;-76
2023/12/03 00:55:39;;;;;;;;;;;;;;;21.79;25.62;96950.88;4994591;28;1977;-76
2023/12/03 00:58:05;;;;;;;;;;;;;;;21.87;25.67;96970.41;4978214;28;1362;-76
2023/12/03 01:00:30;;;;;;;;;;;;;;;21.74;25.86;96971.31;4962258;28;1336;-75
2023/12/03 01:02:56;;;;;;;;;;;;;;;22.22;24.96;96971.63;5023913;28;1004;-76
2023/12/03 01:05:21;;;;;;;;;;;;;;;22.08;25.26;96972.28;5034001;28;956;-76
2023/12/03 01:07:47;;;;;;;;;;;;;;;22.22;25.25;96959.53;5001103;28;1020;-76
2023/12/03 01:10:13;;;;;;;;;;;;;;;21.71;26.00;96960.94;5019429;28;1256;-76
2023/12/03 01:12:38;;;;;;;;;;;;;;;21.44;26.13;96977.88;4966314;28;1420;-75
2023/12/03 01:15:04;;;;;;;;;;;;;;;21.42;26.47;96977.56;4982316;28;1906;-76
2023/12/03 01:17:29;;;;;;;;;;;;;;;21.79;25.60;96967.84;4982084;28;1248;-76
2023/12/03 01:19:55;;;;;;;;;;;;;;;21.76;25.68;96974.47;4982224;28;1357;-76
2023/12/03 01:22:20;;;;;;;;;;;;;;;21.82;25.63;96978.25;4982228;28;975;-76
2023/12/03 01:24:46;;;;;;;;;;;;;;;21.84;25.86;96972.13;4982191;28;1024;-76
2023/12/03 01:27:11;;;;;;;;;;;;;;;21.43;26.28;96973.47;4978564;28;1332;-76
2023/12/03 01:29:38;;;;;;;;;;;;;;;21.32;26.55;96991.69;4992738;28;934;-75
2023/12/03 01:32:03;;;;;;;;;;;;;;;21.59;25.92;96988.13;4997873;28;984;-75
2023/12/03 01:34:29;;;;;;;;;;;;;;;21.87;25.58;96984.56;4998131;28;1906;-76
2023/12/03 01:36:54;;;;;;;;;;;;;;;21.85;25.61;96982.97;4965993;28;1042;-76
2023/12/03 01:39:21;;;;;;;;;;;;;;;21.91;25.28;96985.16;4978342;28;1140;-76
2023/12/03 01:41:46;;;;;;;;;;;;;;;21.99;25.27;96986.44;4958929;28;1075;-75
2023/12/03 01:44:11;;;;;;;;;;;;;;;21.92;25.47;96981.09;4942948;28;1449;-76
2023/12/03 01:46:37;;;;;;;;;;;;;;;21.60;26.04;96991.75;4958994;28;1349;-76
2023/12/03 01:49:02;;;;;;;;;;;;;;;21.56;26.25;96991.13;4959164;28;894;-76
2023/12/03 01:51:28;;;;;;;;;;;;;;;21.28;26.47;96979.69;4975137;28;999;-75
2023/12/03 01:53:54;;;;;;;;;;;;;;;21.62;25.74;96986.41;4975040;28;1401;-75
2023/12/03 01:56:19;;;;;;;;;;;;;;;21.97;25.42;96994.63;4974754;28;1983;-75
2023/12/03 01:58:45;;;;;;;;;;;;;;;22.10;25.20;96992.41;4973311;28;986;-76
2023/12/03 02:01:10;;;;;;;;;;;;;;;21.79;25.61;96989.72;4978085;28;1171;-76
2023/12/03 02:03:36;;;;;;;;;;;;;;;21.97;25.56;96980.47;4997756;28;907;-76
2023/12/03 02:06:11;;;;;;;;;;;;;;;21.48;26.12;96987.00;4981445;28;1080;-76
2023/12/03 02:08:37;;;;;;;;;;;;;;;21.42;26.28;96988.91;4983926;28;1054;-76
2023/12/03 02:11:03;;;;;;;;;;;;;;;21.54;25.99;96996.44;4985496;28;1077;-76
2023/12/03 02:13:29;;;;;;;;;;;;;;;21.72;25.78;96988.00;5010471;28;1005;-76
2023/12/03 02:15:55;;;;;;;;;;;;;;;21.77;25.57;96987.38;5017821;28;1997;-76
2023/12/03 02:18:20;;;;;;;;;;;;;;;21.89;25.28;96993.34;5034832;28;1307;-75
2023/12/03 02:20:46;;;;;;;;;;;;;;;21.91;25.20;96990.81;5019113;28;988;-76
2023/12/03 02:23:12;;;;;;;;;;;;;;;21.20;26.28;97008.78;5017843;28;1110;-76
2023/12/03 02:25:37;;;;;;;;;;;;;;;21.12;26.47;97015.97;5051262;28;912;-75
2023/12/03 02:28:03;;;;;;;;;;;;;;;21.45;26.06;97016.25;5034308;28;917;-75
2023/12/03 02:30:28;;;;;;;;;;;;;;;21.69;25.70;97017.25;5019259;28;945;-76
2023/12/03 02:32:54;;;;;;;;;;;;;;;21.61;25.91;97029.34;5017736;28;1107;-76
2023/12/03 02:35:19;;;;;;;;;;;;;;;21.79;25.31;97030.16;5017810;28;1918;-76
2023/12/03 02:37:45;;;;;;;;;;;;;;;21.87;25.35;97041.19;5017746;28;1669;-76
2023/12/03 02:40:10;;;;;;;;;;;;;;;22.02;25.37;97027.97;5016818;28;1037;-76
2023/12/03 02:42:36;;;;;;;;;;;;;;;21.23;26.16;97034.06;5018810;28;889;-76
2023/12/03 02:45:01;;;;;;;;;;;;;;;20.90;26.74;97021.69;5018806;28;984;-76
2023/12/03 02:47:27;;;;;;;;;;;;;;;21.47;26.05;97020.19;5018782;28;913;-76
2023/12/03 02:49:52;;;;;;;;;;;;;;;21.65;25.63;97033.59;5018746;28;966;-75
2023/12/03 02:52:18;;;;;;;;;;;;;;;21.87;25.33;97029.88;5033844;28;936;-76
2023/12/03 02:54:43;;;;;;;;;;;;;;;21.99;25.36;97043.09;5033974;28;1910;-76
2023/12/03 02:57:09;;;;;;;;;;;;;;;22.04;25.29;97050.97;5033865;28;925;-76
2023/12/03 02:59:34;;;;;;;;;;;;;;;21.31;26.14;97057.25;5032675;28;1054;-77
2023/12/03 03:02:00;;;;;;;;;;;;;;;21.02;26.36;97052.69;5016090;28;1231;-76
2023/12/03 03:04:25;;;;;;;;;;;;;;;21.23;26.48;97056.69;5049061;28;1204;-76
2023/12/03 03:06:51;;;;;;;;;;;;;;;21.66;25.82;97051.34;5015880;28;931;-76
2023/12/03 03:09:16;;;;;;;;;;;;;;;21.68;25.57;97051.69;5038539;28;1257;-76
2023/12/03 03:11:42;;;;;;;;;;;;;;;21.99;25.31;97048.75;5039027;28;1099;-75
2023/12/03 03:14:07;;;;;;;;;;;;;;;22.09;24.97;97059.63;5022419;28;1982;-75
2023/12/03 03:16:34;;;;;;;;;;;;;;;22.06;25.09;97054.09;5055664;28;929;-76
2023/12/03 03:19:00;;;;;;;;;;;;;;;22.12;25.12;97057.91;5055531;28;1016;-75
2023/12/03 03:21:25;;;;;;;;;;;;;;;21.84;25.66;97072.00;5055683;28;1027;-76
2023/12/03 03:23:51;;;;;;;;;;;;;;;21.74;25.78;97061.91;5055105;28;976;-75
2023/12/03 03:26:16;;;;;;;;;;;;;;;21.21;26.35;97058.44;5055526;28;919;-76
2023/12/03 03:28:42;;;;;;;;;;;;;;;20.99;26.82;97070.59;5055391;28;1044;-76
2023/12/03 03:31:08;;;;;;;;;;;;;;;21.53;26.10;97076.97;5038661;28;1603;-76
2023/12/03 03:33:33;;;;;;;;;;;;;;;21.77;25.93;97077.19;5054440;28;1062;-76
2023/12/03 03:35:59;;;;;;;;;;;;;;;21.91;25.66;97076.56;5055442;28;1898;-76
2023/12/03 03:38:24;;;;;;;;;;;;;;;21.85;25.61;97084.13;5054962;28;897;-75
2023/12/03 03:40:50;;;;;;;;;;;;;;;21.83;25.45;97090.25;5037911;28;966;-75
2023/12/03 03:43:15;;;;;;;;;;;;;;;21.91;25.41;97081.47;5016766;28;983;-76
2023/12/03 03:45:41;;;;;;;;;;;;;;;21.33;26.38;97095.13;5034918;28;1079;-76
2023/12/03 03:48:06;;;;;;;;;;;;;;;21.21;26.51;97098.81;5051751;28;1119;-76
2023/12/03 03:50:32;;;;;;;;;;;;;;;21.58;25.97;97099.00;5014956;28;1119;-75
2023/12/03 03:52:57;;;;;;;;;;;;;;;21.71;25.56;97108.19;5015090;28;1090;-75
2023/12/03 03:55:23;;;;;;;;;;;;;;;21.64;25.72;97102.00;5014896;28;1914;-75
2023/12/03 03:57:48;;;;;;;;;;;;;;;22.16;25.05;97108.75;5015135;28;1120;-75
2023/12/03 04:00:14;;;;;;;;;;;;;;;21.92;25.45;97111.38;5014737;28;1103;-75
2023/12/03 04:02:40;;;;;;;;;;;;;;;21.02;26.67;97102.81;4998636;28;1115;-75
2023/12/03 04:05:07;;;;;;;;;;;;;;;21.16;26.51;97107.91;5014723;28;910;-76
2023/12/03 04:07:32;;;;;;;;;;;;;;;21.62;25.80;97110.19;5014990;28;995;-76
2023/12/03 04:09:58;;;;;;;;;;;;;;;21.67;25.71;97107.53;5015100;28;1229;-76
2023/12/03 04:12:23;;;;;;;;;;;;;;;21.72;25.74;97104.09;5014620;28;932;-75
2023/12/03 04:14:49;;;;;;;;;;;;;;;21.84;25.65;97111.66;5031347;28;1894;-76
2023/12/03 04:17:15;;;;;;;;;;;;;;;21.99;25.54;97130.91;5031190;28;1211;-75
2023/12/03 04:19:40;;;;;;;;;;;;;;;21.96;25.21;97160.94;5014803;28;1145;-76
2023/12/03 04:22:05;;;;;;;;;;;;;;;21.44;26.23;97167.50;5011578;28;991;-75
2023/12/03 04:24:31;;;;;;;;;;;;;;;21.04;26.83;97171.03;5017090;28;958;-76
2023/12/03 04:26:56;;;;;;;;;;;;;;;21.44;26.16;97167.50;5017144;28;952;-76
2023/12/03 04:29:22;;;;;;;;;;;;;;;21.84;25.62;97159.00;5016872;28;988;-75
2023/12/03 04:31:48;;;;;;;;;;;;;;;21.95;25.60;97158.56;5048749;28;950;-76
2023/12/03 04:34:13;;;;;;;;;;;;;;;21.99;25.35;97167.72;5029217;28;1973;-76
2023/12/03 04:36:41;;;;;;;;;;;;;;;21.98;25.51;97171.81;5015509;28;1135;-76
2023/12/03 04:39:08;;;;;;;;;;;;;;;21.68;26.01;97174.22;5015453;28;1262;-75
2023/12/03 04:41:37;;;;;;;;;;;;;;;21.49;26.39;97170.50;5016155;28;1550;-75
2023/12/03 04:44:03;;;;;;;;;;;;;;;21.27;26.43;97167.69;4994206;28;1552;-76
2023/12/03 04:46:29;;;;;;;;;;;;;;;21.77;25.78;97167.81;5014345;28;975;-75
2023/12/03 04:48:54;;;;;;;;;;;;;;;21.79;25.68;97159.63;4974860;28;997;-76
2023/12/03 04:51:20;;;;;;;;;;;;;;;21.82;25.94;97168.00;4975120;28;1392;-76
2023/12/03 04:53:45;;;;;;;;;;;;;;;21.84;25.63;97173.97;4959007;28;1019;-76
2023/12/03 04:56:11;;;;;;;;;;;;;;;21.72;26.03;97177.69;4975025;28;1989;-76
2023/12/03 04:58:36;;;;;;;;;;;;;;;21.75;25.78;97188.06;4941496;28;1549;-76
2023/12/03 05:01:02;;;;;;;;;;;;;;;21.50;26.19;97193.94;4939652;29;1043;-75
2023/12/03 05:03:28;;;;;;;;;;;;;;;21.18;26.72;97203.63;4939962;29;996;-76
2023/12/03 05:05:53;;;;;;;;;;;;;;;21.52;26.10;97208.44;4955620;29;1310;-76
2023/12/03 05:08:19;;;;;;;;;;;;;;;21.54;26.00;97211.56;4956407;28;1469;-76
2023/12/03 05:10:44;;;;;;;;;;;;;;;21.93;25.80;97214.91;4975209;28;929;-75
2023/12/03 05:13:10;;;;;;;;;;;;;;;21.82;25.62;97216.13;4984720;28;1847;-76
2023/12/03 05:15:35;;;;;;;;;;;;;;;22.01;25.33;97216.97;4994572;28;1918;-76
2023/12/03 05:18:01;;;;;;;;;;;;;;;21.42;25.95;97229.44;4994163;28;984;-76
2023/12/03 05:20:26;;;;;;;;;;;;;;;21.25;26.25;97229.63;5010588;28;948;-76
2023/12/03 05:22:53;;;;;;;;;;;;;;;21.33;26.03;97242.28;4993758;28;1356;-75
2023/12/03 05:25:19;;;;;;;;;;;;;;;21.39;26.03;97245.28;5011624;28;1351;-76
2023/12/03 05:27:44;;;;;;;;;;;;;;;21.79;25.62;97253.84;4998038;28;891;-75
2023/12/03 05:30:10;;;;;;;;;;;;;;;22.02;25.06;97251.75;5013917;28;1032;-76
2023/12/03 05:32:35;;;;;;;;;;;;;;;21.77;25.36;97253.53;5013373;28;1289;-76
2023/12/03 05:35:01;;;;;;;;;;;;;;;21.32;26.26;97246.34;4997187;28;1927;-76
2023/12/03 05:37:28;;;;;;;;;;;;;;;21.41;26.01;97248.47;5017131;28;953;-76
2023/12/03 05:39:54;;;;;;;;;;;;;;;20.95;26.40;97256.59;5017237;28;974;-76
2023/12/03 05:42:20;;;;;;;;;;;;;;;21.45;26.07;97259.63;5016474;28;1458;-76
2023/12/03 05:44:46;;;;;;;;;;;;;;;21.69;25.42;97259.94;5033641;28;1018;-75
2023/12/03 05:47:12;;;;;;;;;;;;;;;21.85;25.23;97266.16;5016962;28;1000;-76
2023/12/03 05:49:38;;;;;;;;;;;;;;;21.80;25.30;97266.75;5013403;28;975;-76
2023/12/03 05:52:03;;;;;;;;;;;;;;;21.85;25.43;97271.81;4958108;28;1496;-76
2023/12/03 05:54:29;;;;;;;;;;;;;;;21.77;25.39;97269.75;4974464;28;1989;-76
2023/12/03 05:56:54;;;;;;;;;;;;;;;21.70;25.38;97270.78;4977598;28;1035;-76
2023/12/03 05:59:22;;;;;;;;;;;;;;;21.23;26.33;97263.22;4961877;28;1011;-76
2023/12/03 06:01:48;;;;;;;;;;;;;;;21.29;26.09;97269.88;4962887;28;1490;-75
2023/12/03 06:04:14;;;;;;;;;;;;;;;21.55;25.69;97281.91;4981160;28;1363;-75
2023/12/03 06:06:39;;;;;;;;;;;;;;;21.73;25.26;97286.88;4944018;29;991;-76
2023/12/03 06:09:05;;;;;;;;;;;;;;;21.62;25.47;97297.81;4939564;29;1295;-76
2023/12/03 06:11:32;;;;;;;;;;;;;;;21.80;25.33;97303.56;4939832;29;1045;-76
2023/12/03 06:13:58;;;;;;;;;;;;;;;21.90;24.91;97301.59;4937688;29;1414;-75
2023/12/03 06:16:23;;;;;;;;;;;;;;;21.96;25.12;97310.28;4941778;28;1902;-76
2023/12/03 06:18:49;;;;;;;;;;;;;;;22.08;25.07;97313.03;4942018;28;1451;-76
2023/12/03 06:21:14;;;;;;;;;;;;;;;21.49;25.66;97317.69;4957024;28;925;-76
2023/12/03 06:23:40;;;;;;;;;;;;;;;21.46;25.63;97312.19;4977855;28;1120;-76
2023/12/03 06:26:05;;;;;;;;;;;;;;;21.53;25.39;97334.56;4978031;28;969;-75
2023/12/03 06:28:31;;;;;;;;;;;;;;;21.51;25.56;97314.41;4962285;28;1427;-76
2023/12/03 06:30:57;;;;;;;;;;;;;;;21.77;25.10;97327.16;4997334;28;1313;-75
2023/12/03 06:33:22;;;;;;;;;;;;;;;22.08;24.84;97329.22;4996804;28;1266;-76
2023/12/03 06:35:49;;;;;;;;;;;;;;;21.99;25.21;97323.50;4997462;28;1914;-76
2023/12/03 06:38:15;;;;;;;;;;;;;;;21.83;25.09;97328.16;5047058;28;1322;-76
2023/12/03 06:40:41;;;;;;;;;;;;;;;21.30;26.04;97332.97;5023252;28;1161;-76
2023/12/03 06:43:07;;;;;;;;;;;;;;;21.31;26.10;97340.19;5040176;28;934;-76
2023/12/03 06:45:32;;;;;;;;;;;;;;;21.62;25.67;97348.78;5056346;28;986;-76
2023/12/03 06:47:58;;;;;;;;;;;;;;;21.76;25.18;97347.44;5039373;28;1517;-76
2023/12/03 06:50:23;;;;;;;;;;;;;;;21.59;25.58;97355.34;5039558;28;1007;-75
2023/12/03 06:52:49;;;;;;;;;;;;;;;21.93;25.20;97362.97;5056157;28;1029;-76
2023/12/03 06:55:14;;;;;;;;;;;;;;;21.80;25.15;97365.88;5039508;28;1902;-75
2023/12/03 06:57:40;;;;;;;;;;;;;;;21.49;25.60;97365.81;5011243;28;1456;-76
2023/12/03 07:00:08;;;;;;;;;;;;;;;21.14;26.25;97370.69;5019247;28;1030;-76
2023/12/03 07:02:34;;;;;;;;;;;;;;;21.38;25.84;97370.28;5019658;28;1125;-75
2023/12/03 07:04:59;;;;;;;;;;;;;;;21.62;25.69;97377.09;5019515;28;1568;-76
2023/12/03 07:07:25;;;;;;;;;;;;;;;21.79;25.42;97380.50;5027159;28;1499;-75
2023/12/03 07:09:50;;;;;;;;;;;;;;;21.93;24.96;97379.97;5055198;28;1061;-76
2023/12/03 07:12:16;;;;;;;;;;;;;;;21.79;25.08;97389.78;5040374;28;1654;-76
2023/12/03 07:14:41;;;;;;;;;;;;;;;21.92;25.01;97388.94;5039731;28;1906;-75
2023/12/03 07:17:07;;;;;;;;;;;;;;;22.15;24.79;97394.13;4998943;28;1472;-75
2023/12/03 07:19:33;;;;;;;;;;;;;;;21.58;25.35;97393.41;4999682;28;1149;-76
2023/12/03 07:21:58;;;;;;;;;;;;;;;21.32;25.85;97399.16;4999453;28;1009;-76
2023/12/03 07:24:24;;;;;;;;;;;;;;;21.52;25.42;97400.91;4999368;28;1313;-76
2023/12/03 07:26:49;;;;;;;;;;;;;;;21.54;25.51;97399.19;4975832;28;1533;-76
2023/12/03 07:29:17;;;;;;;;;;;;;;;21.73;25.47;97396.50;4959809;28;1358;-76
2023/12/03 07:31:43;;;;;;;;;;;;;;;22.15;24.63;97401.84;4976533;28;971;-76
2023/12/03 07:34:08;;;;;;;;;;;;;;;21.62;25.14;97411.06;4989824;28;1447;-76
2023/12/03 07:36:34;;;;;;;;;;;;;;;21.94;25.02;97421.22;4996033;28;1894;-76
2023/12/03 07:38:59;;;;;;;;;;;;;;;21.57;25.77;97425.81;4963308;28;1011;-75
2023/12/03 07:41:25;;;;;;;;;;;;;;;21.32;25.84;97435.16;4963472;28;1278;-76
2023/12/03 07:43:51;;;;;;;;;;;;;;;21.06;26.55;97425.91;4992061;28;1444;-76
2023/12/03 07:46:17;;;;;;;;;;;;;;;21.12;26.57;97428.94;4960296;28;1679;-76
2023/12/03 07:48:42;;;;;;;;;;;;;;;21.64;25.61;97425.53;4948806;28;1287;-75
2023/12/03 07:51:08;;;;;;;;;;;;;;;21.78;25.14;97430.69;4937439;29;910;-76
2023/12/03 07:53:34;;;;;;;;;;;;;;;21.90;25.03;97425.41;4956430;28;1438;-75
2023/12/03 07:55:59;;;;;;;;;;;;;;;21.74;25.29;97421.53;4956568;29;1895;-76
2023/12/03 07:58:25;;;;;;;;;;;;;;;21.84;24.94;97434.50;5001753;28;1360;-75
2023/12/03 08:00:51;;;;;;;;;;;;;;;21.43;25.73;97443.28;4979226;28;1112;-76
2023/12/03 08:03:16;;;;;;;;;;;;;;;21.38;25.97;97460.84;5011298;28;1471;-76
2023/12/03 08:05:41;;;;;;;;;;;;;;;21.61;25.85;97456.81;4979464;28;1043;-75
2023/12/03 08:08:07;;;;;;;;;;;;;;;21.78;25.36;97447.69;4975716;28;1164;-76
2023/12/03 08:10:33;;;;;;;;;;;;;;;22.04;25.06;97453.22;4958213;28;1072;-76
2023/12/03 08:12:58;;;;;;;;;;;;;;;21.97;25.12;97454.28;4940551;28;979;-75
2023/12/03 08:15:24;;;;;;;;;;;;;;;22.03;25.13;97451.66;4972933;28;1965;-76
2023/12/03 08:17:49;;;;;;;;;;;;;;;21.98;25.21;97455.06;4943496;28;1245;-76
2023/12/03 08:20:15;;;;;;;;;;;;;;;21.40;25.73;97453.50;4944095;28;992;-76
2023/12/03 08:22:40;;;;;;;;;;;;;;;21.32;25.78;97452.94;4942517;28;1797;-76
2023/12/03 08:25:07;;;;;;;;;;;;;;;21.46;25.89;97442.38;4963871;28;1000;-75
2023/12/03 08:27:32;;;;;;;;;;;;;;;21.44;25.86;97451.31;5017742;28;974;-76
2023/12/03 08:29:58;;;;;;;;;;;;;;;21.77;25.55;97450.97;5034697;28;1043;-76
2023/12/03 08:32:23;;;;;;;;;;;;;;;21.88;25.01;97451.38;5001168;28;1522;-76
2023/12/03 08:34:49;;;;;;;;;;;;;;;21.79;25.31;97454.91;5017861;28;1906;-76
2023/12/03 08:37:15;;;;;;;;;;;;;;;21.56;25.65;97458.19;5017682;28;1085;-76
2023/12/03 08:39:41;;;;;;;;;;;;;;;21.16;26.10;97464.38;5032302;28;915;-76
2023/12/03 08:42:07;;;;;;;;;;;;;;;20.90;26.60;97462.81;5037217;28;1319;-76
2023/12/03 08:44:33;;;;;;;;;;;;;;;21.45;25.68;97463.41;4994276;28;1199;-76
2023/12/03 08:46:59;;;;;;;;;;;;;;;21.61;25.81;97466.09;5011105;28;1657;-76
2023/12/03 08:49:24;;;;;;;;;;;;;;;21.77;25.44;97471.59;4978640;28;979;-76
2023/12/03 08:51:50;;;;;;;;;;;;;;;21.82;25.42;97464.56;4978491;28;1529;-76
2023/12/03 08:54:16;;;;;;;;;;;;;;;22.00;24.97;97463.91;5011067;28;1961;-76
2023/12/03 08:56:44;;;;;;;;;;;;;;;22.06;25.20;97462.03;5010957;28;1697;-76
2023/12/03 08:59:10;;;;;;;;;;;;;;;21.88;25.45;97473.25;4982104;28;962;-75
2023/12/03 09:01:40;;;;;;;;;;;;;;;21.61;25.64;97477.44;4972973;28;1427;-76
2023/12/03 09:04:05;;;;;;;;;;;;;;;21.21;26.37;97477.16;4978444;28;1585;-76
2023/12/03 09:06:31;;;;;;;;;;;;;;;21.32;26.40;97463.47;4994823;28;980;-75
2023/12/03 09:08:56;;;;;;;;;;;;;;;21.60;25.98;97458.84;4994288;28;1038;-76
2023/12/03 09:11:22;;;;;;;;;;;;;;;21.61;25.68;97459.66;4993928;28;1477;-76
2023/12/03 09:13:48;;;;;;;;;;;;;;;21.67;25.80;97458.59;4955403;29;993;-76
2023/12/03 09:16:13;;;;;;;;;;;;;;;21.94;25.36;97468.56;4939517;29;1977;-76
2023/12/03 09:18:59;;;;;;;;;;;;;;;21.95;25.56;97467.31;4936281;29;1019;-76
2023/12/03 09:21:24;;;;;;;;;;;;;;;21.43;26.33;97477.25;4936182;29;1317;-76
2023/12/03 09:23:50;;;;;;;;;;;;;;;21.29;26.54;97484.91;4923541;28;1371;-76
2023/12/03 09:26:18;;;;;;;;;;;;;;;21.75;25.76;97487.44;4943059;28;959;-76
2023/12/03 09:28:45;;;;;;;;;;;;;;;21.70;26.11;97496.53;4955299;29;915;-76
2023/12/03 09:31:13;;;;;;;;;;;;;;;21.85;25.93;97491.94;4931668;29;1561;-76
2023/12/03 09:33:40;;;;;;;;;;;;;;;21.89;25.73;97503.16;4939905;29;1128;-75
2023/12/03 09:36:08;;;;;;;;;;;;;;;21.47;26.33;97497.72;4939904;29;1911;-76
2023/12/03 09:38:55;;;;;;;;;;;;;;;21.31;26.70;97499.47;4920958;29;1002;-76
2023/12/03 09:41:20;;;;;;;;;;;;;;;21.45;26.41;97491.72;4920282;29;1498;-76
2023/12/03 09:43:46;;;;;;;;;;;;;;;21.58;26.37;97496.09;4904979;29;1030;-76
2023/12/03 09:46:15;;;;;;;;;;;;;;;21.75;26.00;97476.13;4905086;29;1452;-76
2023/12/03 09:48:42;;;;;;;;;;;;;;;21.79;26.09;97480.41;4905310;29;1204;-76
2023/12/03 09:51:11;;;;;;;;;;;;;;;21.96;25.83;97480.22;4910070;29;1372;-76
2023/12/03 09:53:46;;;;;;;;;;;;;;;21.89;26.29;97478.44;4939248;29;1526;-76
2023/12/03 09:56:12;;;;;;;;;;;;;;;21.22;27.21;97488.00;4928182;29;1981;-76
2023/12/03 09:58:38;;;;;;;;;;;;;;;21.06;27.41;97476.81;4935331;29;1503;-76
2023/12/03 10:01:03;;;;;;;;;;;;;;;21.51;26.67;97495.56;4919979;29;1397;-76
2023/12/03 10:03:34;;;;;;;;;;;;;;;21.76;26.39;97498.34;4920601;29;1176;-76
2023/12/03 10:06:00;;;;;;;;;;;;;;;21.71;26.60;97506.59;4937242;29;959;-76
2023/12/03 10:08:26;;;;;;;;;;;;;;;21.73;26.32;97493.56;4941697;29;1456;-76
2023/12/03 10:10:59;;;;;;;;;;;;;;;21.96;25.98;97494.38;4995624;28;1472;-76
2023/12/03 10:13:25;;;;;;;;;;;;;;;21.93;26.34;97492.50;4964984;28;1413;-76
2023/12/03 10:16:10;;;;;;;;;;;;;;;21.58;26.80;97490.44;4991092;28;1911;-75
2023/12/03 10:18:37;;;;;;;;;;;;;;;21.54;26.77;97483.31;4954293;28;2149;-76
2023/12/03 10:21:06;;;;;;;;;;;;;;;21.71;26.79;97483.94;4939161;29;981;-75
2023/12/03 10:23:32;;;;;;;;;;;;;;;21.76;26.56;97495.50;4919992;29;935;-76
2023/12/03 10:26:08;;;;;;;;;;;;;;;21.83;26.71;97492.41;4901321;29;987;-76
2023/12/03 10:28:34;;;;;;;;;;;;;;;22.04;26.37;97482.34;4874145;29;1489;-75
2023/12/03 10:31:00;;;;;;;;;;;;;;;21.79;26.41;97488.91;4903957;29;1370;-76
2023/12/03 10:33:26;;;;;;;;;;;;;;;21.58;26.89;97496.09;4904298;29;989;-76
2023/12/03 10:35:52;;;;;;;;;;;;;;;21.18;27.55;97495.81;4904306;29;1911;-76
2023/12/03 10:38:18;;;;;;;;;;;;;;;21.41;27.51;97497.50;4881430;29;1490;-76
2023/12/03 10:40:46;;;;;;;;;;;;;;;21.94;26.64;97494.06;4889994;29;1021;-75
2023/12/03 10:43:12;;;;;;;;;;;;;;;21.83;26.54;97492.41;4903875;29;1009;-76
2023/12/03 10:45:37;;;;;;;;;;;;;;;21.99;26.49;97493.47;4919913;29;932;-75
2023/12/03 10:48:04;;;;;;;;;;;;;;;21.88;26.72;97501.56;4935757;29;1443;-76
2023/12/03 10:50:30;;;;;;;;;;;;;;;21.53;27.20;97510.06;4923210;29;1014;-75
2023/12/03 10:52:57;;;;;;;;;;;;;;;21.52;27.04;97505.66;4922097;29;1093;-76
2023/12/03 10:55:24;;;;;;;;;;;;;;;21.62;26.85;97496.00;4951987;29;1903;-76
2023/12/03 10:57:49;;;;;;;;;;;;;;;21.94;26.51;97494.84;4924271;29;1634;-76
2023/12/03 11:00:35;;;;;;;;;;;;;;;21.98;26.39;97489.06;4974076;28;1385;-76
2023/12/03 11:03:27;;;;;;;;;;;;;;;21.80;26.59;97487.66;4970488;28;1509;-76
2023/12/03 11:05:54;;;;;;;;;;;;;;;21.55;27.16;97496.22;4941431;29;1335;-76
2023/12/03 11:08:20;;;;;;;;;;;;;;;21.23;27.38;97498.06;4926909;28;1713;-76
2023/12/03 11:10:48;;;;;;;;;;;;;;;21.65;26.67;97517.72;4945080;28;944;-76
2023/12/03 11:13:13;;;;;;;;;;;;;;;21.74;26.60;97506.47;4919033;29;979;-76
2023/12/03 11:15:39;;;;;;;;;;;;;;;21.84;26.44;97505.31;4903467;29;1998;-76
2023/12/03 11:18:06;;;;;;;;;;;;;;;21.96;26.33;97508.56;4903331;29;1449;-76
2023/12/03 11:20:35;;;;;;;;;;;;;;;22.04;26.42;97501.38;4887950;29;1285;-76
2023/12/03 11:23:02;;;;;;;;;;;;;;;21.90;26.41;97516.06;4887907;29;1398;-76
2023/12/03 11:25:28;;;;;;;;;;;;;;;21.51;27.01;97519.00;4903302;29;1402;-76
2023/12/03 11:27:53;;;;;;;;;;;;;;;21.49;27.10;97521.47;4902707;29;1639;-76
2023/12/03 11:30:37;;;;;;;;;;;;;;;21.47;26.79;97523.22;4881053;29;1113;-76
2023/12/03 11:33:23;;;;;;;;;;;;;;;21.72;26.28;97517.47;4899656;29;943;-76
2023/12/03 11:35:48;;;;;;;;;;;;;;;21.98;26.03;97520.22;4898252;29;1911;-76
2023/12/03 11:38:17;;;;;;;;;;;;;;;22.28;25.85;97530.91;4900278;29;1498;-75
2023/12/03 11:40:42;;;;;;;;;;;;;;;21.75;26.38;97533.53;4880660;29;1233;-76
2023/12/03 11:43:30;;;;;;;;;;;;;;;21.66;26.62;97536.31;4958585;28;886;-75
2023/12/03 11:45:56;;;;;;;;;;;;;;;21.28;26.87;97520.13;4976353;28;1125;-76
2023/12/03 11:48:22;;;;;;;;;;;;;;;21.84;26.60;97536.47;4963155;28;1320;-76
2023/12/03 11:50:48;;;;;;;;;;;;;;;21.96;26.03;97540.50;4995406;28;1024;-76
2023/12/03 11:53:15;;;;;;;;;;;;;;;21.96;25.97;97537.66;4979320;28;968;-76
2023/12/03 11:55:45;;;;;;;;;;;;;;;21.97;26.10;97535.66;4995767;28;1918;-75
2023/12/03 11:58:11;;;;;;;;;;;;;;;22.27;25.93;97539.84;4978335;28;1392;-76
2023/12/03 12:00:37;;;;;;;;;;;;;;;21.90;26.17;97536.66;4981334;28;1441;-75
2023/12/03 12:03:03;;;;;;;;;;;;;;;21.54;27.00;97537.09;4998611;28;1035;-75
2023/12/03 12:05:29;;;;;;;;;;;;;;;21.17;27.40;97547.97;4961540;28;1020;-75
2023/12/03 12:08:04;;;;;;;;;;;;;;;21.61;26.89;97539.72;4992235;28;933;-76
2023/12/03 12:10:33;;;;;;;;;;;;;;;21.65;26.76;97554.53;4998194;28;1059;-75
2023/12/03 12:12:59;;;;;;;;;;;;;;;21.98;26.19;97560.69;4999045;28;1006;-76
2023/12/03 12:15:25;;;;;;;;;;;;;;;21.99;26.27;97567.13;4982367;28;1987;-75
2023/12/03 12:18:10;;;;;;;;;;;;;;;21.90;26.40;97573.50;5014767;28;956;-75
2023/12/03 12:20:36;;;;;;;;;;;;;;;21.98;26.08;97563.50;4978572;28;994;-76
2023/12/03 12:23:01;;;;;;;;;;;;;;;21.66;26.60;97550.47;4995172;28;1010;-75
2023/12/03 12:25:28;;;;;;;;;;;;;;;21.26;27.03;97545.28;4995087;28;1217;-76
2023/12/03 12:27:54;;;;;;;;;;;;;;;21.37;26.97;97535.66;4978664;28;1401;-76
2023/12/03 12:30:24;;;;;;;;;;;;;;;21.62;26.55;97541.28;4996946;28;1622;-76
2023/12/03 12:32:54;;;;;;;;;;;;;;;21.94;26.37;97554.34;5014740;28;1161;-76
2023/12/03 12:35:23;;;;;;;;;;;;;;;22.06;25.79;97558.38;4996089;28;1976;-76
2023/12/03 12:38:08;;;;;;;;;;;;;;;21.88;26.15;97549.72;4997552;28;1613;-76
2023/12/03 12:40:41;;;;;;;;;;;;;;;22.02;26.01;97546.38;4996412;28;993;-76
2023/12/03 12:43:10;;;;;;;;;;;;;;;21.70;26.68;97542.63;4998332;28;1413;-76
2023/12/03 12:45:56;;;;;;;;;;;;;;;21.12;27.26;97542.91;5034233;28;947;-75
2023/12/03 12:48:23;;;;;;;;;;;;;;;21.21;27.18;97528.88;5013851;28;1499;-76
2023/12/03 12:50:49;;;;;;;;;;;;;;;21.62;26.95;97534.84;5001196;28;1108;-75
2023/12/03 12:53:14;;;;;;;;;;;;;;;21.56;26.74;97551.63;5034017;28;963;-77
2023/12/03 12:55:40;;;;;;;;;;;;;;;21.74;26.53;97565.94;5050695;28;1953;-75
2023/12/03 12:58:05;;;;;;;;;;;;;;;21.83;26.70;97570.91;5033181;28;1386;-76